createdAt,value
2022-09-11T00:01:30.928Z,18.57
2022-09-11T00:03:58.555Z,18.69
2022-09-11T00:06:30.208Z,18.55
2022-09-11T00:09:01.910Z,18.66
2022-09-11T00:11:33.004Z,18.87
2022-09-11T00:14:01.029Z,18.81
2022-09-11T00:16:34.875Z,18.69
2022-09-11T00:19:07.297Z,18.69
2022-09-11T00:21:34.904Z,18.65
2022-09-11T00:24:03.494Z,18.63
2022-09-11T00:26:31.388Z,18.64
2022-09-11T00:29:00.695Z,18.56
2022-09-11T00:31:30.123Z,18.61
2022-09-11T00:33:58.409Z,18.64
2022-09-11T00:36:29.122Z,18.59
2022-09-11T00:38:58.046Z,18.59
2022-09-11T00:41:36.493Z,18.58
2022-09-11T00:44:28.339Z,18.63
2022-09-11T00:46:58.504Z,18.59
2022-09-11T00:49:32.667Z,18.67
2022-09-11T00:52:09.864Z,18.63
2022-09-11T00:54:46.392Z,18.59
2022-09-11T00:57:14.059Z,18.60
2022-09-11T00:59:45.121Z,18.59
2022-09-11T01:02:16.407Z,18.56
2022-09-11T01:04:44.303Z,18.64
2022-09-11T01:07:15.420Z,18.63
2022-09-11T01:09:43.142Z,18.73
2022-09-11T01:12:16.877Z,18.77
2022-09-11T01:14:57.320Z,18.70
2022-09-11T01:17:30.744Z,18.63
2022-09-11T01:20:10.104Z,18.55
2022-09-11T01:22:55.504Z,18.54
2022-09-11T01:25:46.134Z,18.56
2022-09-11T01:28:18.286Z,18.39
2022-09-11T01:30:50.738Z,18.38
2022-09-11T01:33:34.947Z,18.42
2022-09-11T01:36:10.085Z,18.25
2022-09-11T01:38:46.290Z,18.12
2022-09-11T01:41:30.039Z,18.22
2022-09-11T01:44:04.115Z,18.39
2022-09-11T01:46:37.215Z,18.37
2022-09-11T01:49:15.536Z,18.31
2022-09-11T01:51:43.176Z,18.19
2022-09-11T01:54:17.855Z,18.19
2022-09-11T01:56:55.920Z,18.15
2022-09-11T01:59:30.887Z,18.11
2022-09-11T02:02:06.804Z,18.15
2022-09-11T02:04:41.455Z,18.13
2022-09-11T02:07:18.104Z,18.13
2022-09-11T02:09:56.788Z,18.16
2022-09-11T02:12:28.611Z,18.06
2022-09-11T02:14:57.435Z,18.18
2022-09-11T02:17:48.263Z,18.34
2022-09-11T02:20:16.277Z,18.41
2022-09-11T02:22:44.187Z,18.35
2022-09-11T02:25:13.775Z,18.34
2022-09-11T02:27:41.202Z,18.40
2022-09-11T02:30:10.850Z,18.47
2022-09-11T02:32:43.695Z,18.53
2022-09-11T02:35:11.947Z,18.66
2022-09-11T02:37:49.132Z,18.83
2022-09-11T02:40:38.969Z,18.94
2022-09-11T02:43:09.906Z,19.07
2022-09-11T02:46:02.425Z,19.28
2022-09-11T02:48:41.914Z,19.21
2022-09-11T02:51:18.893Z,19.20
2022-09-11T02:54:12.211Z,19.44
2022-09-11T02:56:49.379Z,19.38
2022-09-11T02:59:24.740Z,19.01
2022-09-11T03:01:55.258Z,18.57
2022-09-11T03:04:26.261Z,18.34
2022-09-11T03:06:56.804Z,18.24
2022-09-11T03:09:24.330Z,18.18
2022-09-11T03:11:56.142Z,17.85
2022-09-11T03:14:23.566Z,17.92
2022-09-11T03:16:50.943Z,17.89
2022-09-11T03:19:19.728Z,18.01
2022-09-11T03:21:47.100Z,18.01
2022-09-11T03:24:15.714Z,17.63
2022-09-11T03:26:43.984Z,17.74
2022-09-11T03:29:11.630Z,17.69
2022-09-11T03:31:39.583Z,17.56
2022-09-11T03:34:08.776Z,17.56
2022-09-11T03:36:36.802Z,17.35
2022-09-11T03:39:06.084Z,17.09
2022-09-11T03:41:33.433Z,16.77
2022-09-11T03:44:00.858Z,16.76
2022-09-11T03:46:30.008Z,16.43
2022-09-11T03:48:57.999Z,16.27
2022-09-11T03:51:26.467Z,16.19
2022-09-11T03:53:54.480Z,16.26
2022-09-11T03:56:21.799Z,16.13
2022-09-11T03:58:49.914Z,16.17
2022-09-11T04:01:18.857Z,16.12
2022-09-11T04:03:47.024Z,16.06
2022-09-11T04:06:24.589Z,16.06
2022-09-11T04:08:52.008Z,16.10
2022-09-11T04:11:20.460Z,16.05
2022-09-11T04:13:49.852Z,16.11
2022-09-11T04:16:19.799Z,16.09
2022-09-11T04:18:53.496Z,16.05
2022-09-11T04:21:21.448Z,16.05
2022-09-11T04:23:54.356Z,16.04
2022-09-11T04:26:24.992Z,16.00
2022-09-11T04:28:58.600Z,15.93
2022-09-11T04:31:27.670Z,15.76
2022-09-11T04:33:57.961Z,15.65
2022-09-11T04:36:30.049Z,15.49
2022-09-11T04:39:00.118Z,15.48
2022-09-11T04:41:28.926Z,15.57
2022-09-11T04:44:04.713Z,15.58
2022-09-11T04:46:37.647Z,15.57
2022-09-11T04:49:09.005Z,15.72
2022-09-11T04:51:38.254Z,15.36
2022-09-11T04:54:07.801Z,15.38
2022-09-11T04:56:38.253Z,15.40
2022-09-11T04:59:13.766Z,15.30
2022-09-11T05:01:44.429Z,15.20
2022-09-11T05:04:13.326Z,15.30
2022-09-11T05:06:45.321Z,15.39
2022-09-11T05:09:16.090Z,15.52
2022-09-11T05:11:45.371Z,15.57
2022-09-11T05:14:12.827Z,15.62
2022-09-11T05:16:43.784Z,15.66
2022-09-11T05:19:12.564Z,15.46
2022-09-11T05:21:41.472Z,15.32
2022-09-11T05:24:08.876Z,15.36
2022-09-11T05:26:38.093Z,15.54
2022-09-11T05:29:11.468Z,15.66
2022-09-11T05:31:56.695Z,15.64
2022-09-11T05:34:25.413Z,15.68
2022-09-11T05:36:54.023Z,15.59
2022-09-11T05:39:21.491Z,15.46
2022-09-11T05:41:52.780Z,15.36
2022-09-11T05:44:20.114Z,15.41
2022-09-11T05:46:49.159Z,15.44
2022-09-11T05:49:17.518Z,15.53
2022-09-11T05:51:45.184Z,15.57
2022-09-11T05:54:13.271Z,15.61
2022-09-11T05:56:41.581Z,15.74
2022-09-11T05:59:14.930Z,15.88
2022-09-11T06:01:44.668Z,15.99
2022-09-11T06:04:19.558Z,16.02
2022-09-11T06:06:48.989Z,16.17
2022-09-11T06:09:17.988Z,16.24
2022-09-11T06:11:45.368Z,16.35
2022-09-11T06:14:13.492Z,16.36
2022-09-11T06:16:43.029Z,16.59
2022-09-11T06:19:13.641Z,16.61
2022-09-11T06:21:41.615Z,16.65
2022-09-11T06:24:16.433Z,16.83
2022-09-11T06:26:46.592Z,16.76
2022-09-11T06:29:16.135Z,16.70
2022-09-11T06:31:51.834Z,16.75
2022-09-11T06:34:23.552Z,16.68
2022-09-11T06:36:52.466Z,16.86
2022-09-11T06:39:23.165Z,16.92
2022-09-11T06:41:54.100Z,17.14
2022-09-11T06:44:27.631Z,17.33
2022-09-11T06:46:59.455Z,17.47
2022-09-11T06:49:27.506Z,17.50
2022-09-11T06:52:13.569Z,17.64
2022-09-11T06:54:46.190Z,17.82
2022-09-11T06:57:16.190Z,17.89
2022-09-11T06:59:43.998Z,18.01
2022-09-11T07:02:12.133Z,18.20
2022-09-11T07:04:39.775Z,18.30
2022-09-11T07:07:08.015Z,18.53
2022-09-11T07:09:37.090Z,18.69
2022-09-11T07:12:04.389Z,18.93
2022-09-11T07:14:32.919Z,18.87
2022-09-11T07:17:10.125Z,19.03
2022-09-11T07:19:37.294Z,19.12
2022-09-11T07:22:04.531Z,19.14
2022-09-11T07:24:33.173Z,19.25
2022-09-11T07:27:00.868Z,19.38
2022-09-11T07:29:32.664Z,19.46
2022-09-11T07:32:00.028Z,19.45
2022-09-11T07:34:28.098Z,19.84
2022-09-11T07:36:58.053Z,20.11
2022-09-11T07:39:26.922Z,20.32
2022-09-11T07:42:03.851Z,20.26
2022-09-11T07:44:34.497Z,20.33
2022-09-11T07:47:03.187Z,20.42
2022-09-11T07:49:34.542Z,20.66
2022-09-11T07:52:03.368Z,20.98
2022-09-11T07:54:39.240Z,20.90
2022-09-11T07:57:07.296Z,20.86
2022-09-11T07:59:35.629Z,21.14
2022-09-11T08:02:05.484Z,21.09
2022-09-11T08:04:32.952Z,21.48
2022-09-11T08:07:00.546Z,21.78
2022-09-11T08:09:32.885Z,21.61
2022-09-11T08:12:02.354Z,21.68
2022-09-11T08:14:31.948Z,21.89
2022-09-11T08:17:06.719Z,22.00
2022-09-11T08:19:34.060Z,21.84
2022-09-11T08:22:02.494Z,22.54
2022-09-11T08:24:34.755Z,22.98
2022-09-11T08:27:06.011Z,22.84
2022-09-11T08:29:36.573Z,22.94
2022-09-11T08:32:05.136Z,23.03
2022-09-11T08:34:33.554Z,22.79
2022-09-11T08:37:00.932Z,22.61
2022-09-11T08:39:31.519Z,22.42
2022-09-11T08:42:10.872Z,22.89
2022-09-11T08:44:51.122Z,22.68
2022-09-11T08:47:33.645Z,22.69
2022-09-11T08:50:09.318Z,22.33
2022-09-11T08:52:37.055Z,22.64
2022-09-11T08:55:17.991Z,22.44
2022-09-11T08:57:49.026Z,22.57
2022-09-11T09:00:22.049Z,22.52
2022-09-11T09:03:18.960Z,22.97
2022-09-11T09:06:30.715Z,22.99
2022-09-11T09:09:06.058Z,23.38
2022-09-11T09:11:58.922Z,23.20
2022-09-11T09:14:35.623Z,23.47
2022-09-11T09:17:12.237Z,23.87
2022-09-11T09:20:00.906Z,23.88
2022-09-11T09:22:47.991Z,24.02
2022-09-11T09:25:21.254Z,24.01
2022-09-11T09:28:06.239Z,24.21
2022-09-11T09:30:50.200Z,24.42
2022-09-11T09:33:35.170Z,24.19
2022-09-11T09:36:16.751Z,23.46
2022-09-11T09:38:46.398Z,23.79
2022-09-11T09:41:38.581Z,24.27
2022-09-11T09:44:19.730Z,24.44
2022-09-11T09:46:51.175Z,24.52
2022-09-11T09:49:26.839Z,24.66
2022-09-11T09:52:03.676Z,24.78
2022-09-11T09:54:36.277Z,24.64
2022-09-11T09:57:07.487Z,24.55
2022-09-11T09:59:40.867Z,24.30
2022-09-11T10:02:08.500Z,24.47
2022-09-11T10:04:35.788Z,24.46
2022-09-11T10:07:06.057Z,24.24
2022-09-11T10:09:33.585Z,24.64
2022-09-11T10:12:04.105Z,24.63
2022-09-11T10:14:52.224Z,24.53
2022-09-11T10:17:32.378Z,24.92
2022-09-11T10:20:32.943Z,24.97
2022-09-11T10:23:27.222Z,24.58
2022-09-11T10:25:54.718Z,24.98
2022-09-11T10:28:32.227Z,25.12
2022-09-11T10:31:03.157Z,24.87
2022-09-11T10:33:30.498Z,24.93
2022-09-11T10:36:00.359Z,25.13
2022-09-11T10:38:45.083Z,25.36
2022-09-11T10:41:12.573Z,25.22
2022-09-11T10:43:52.174Z,25.72
2022-09-11T10:46:22.402Z,25.56
2022-09-11T10:49:20.078Z,25.68
2022-09-11T10:52:03.122Z,25.40
2022-09-11T10:55:00.058Z,25.39
2022-09-11T10:57:47.346Z,25.57
2022-09-11T11:00:25.250Z,25.74
2022-09-11T11:02:57.819Z,25.61
2022-09-11T11:05:43.792Z,25.87
2022-09-11T11:08:22.673Z,26.03
2022-09-11T11:10:59.046Z,25.96
2022-09-11T11:13:37.602Z,26.06
2022-09-11T11:16:35.783Z,25.98
2022-09-11T11:19:38.700Z,25.67
2022-09-11T11:22:21.187Z,25.77
2022-09-11T11:25:03.738Z,26.10
2022-09-11T11:28:11.667Z,26.18
2022-09-11T11:31:04.255Z,26.13
2022-09-11T11:34:10.393Z,26.38
2022-09-11T11:36:55.130Z,26.40
2022-09-11T11:39:34.241Z,26.40
2022-09-11T11:42:12.655Z,26.50
2022-09-11T11:44:51.411Z,26.44
2022-09-11T11:47:25.354Z,26.38
2022-09-11T11:50:11.300Z,26.25
2022-09-11T11:52:53.818Z,26.59
2022-09-11T11:55:25.976Z,26.12
2022-09-11T11:57:53.815Z,25.92
2022-09-11T12:00:21.949Z,26.39
2022-09-11T12:02:58.228Z,26.41
2022-09-11T12:05:32.778Z,26.39
2022-09-11T12:08:01.170Z,26.70
2022-09-11T12:10:36.271Z,26.56
2022-09-11T12:13:07.510Z,26.63
2022-09-11T12:15:38.256Z,26.66
2022-09-11T12:18:11.812Z,26.93
2022-09-11T12:20:41.273Z,26.65
2022-09-11T12:23:32.972Z,26.25
2022-09-11T12:26:16.823Z,26.05
2022-09-11T12:28:44.556Z,26.44
2022-09-11T12:31:14.273Z,26.61
2022-09-11T12:33:41.477Z,26.59
2022-09-11T12:36:12.872Z,26.62
2022-09-11T12:38:45.943Z,26.63
2022-09-11T12:41:17.362Z,26.68
2022-09-11T12:43:48.028Z,26.88
2022-09-11T12:46:21.518Z,26.80
2022-09-11T12:49:21.097Z,26.98
2022-09-11T12:51:59.566Z,26.91
2022-09-11T12:54:33.317Z,26.66
2022-09-11T12:57:09.235Z,26.32
2022-09-11T12:59:42.039Z,26.77
2022-09-11T13:02:31.555Z,26.94
2022-09-11T13:04:59.161Z,26.91
2022-09-11T13:07:48.315Z,26.97
2022-09-11T13:10:37.167Z,27.11
2022-09-11T13:13:37.536Z,27.54
2022-09-11T13:16:19.013Z,26.88
2022-09-11T13:18:46.513Z,27.06
2022-09-11T13:21:18.146Z,27.24
2022-09-11T13:23:46.803Z,27.14
2022-09-11T13:26:35.106Z,26.91
2022-09-11T13:29:02.453Z,27.10
2022-09-11T13:31:35.676Z,27.02
2022-09-11T13:34:12.036Z,26.71
2022-09-11T13:36:40.561Z,26.66
2022-09-11T13:39:09.404Z,26.81
2022-09-11T13:41:40.828Z,26.56
2022-09-11T13:44:31.270Z,26.24
2022-09-11T13:46:58.893Z,26.46
2022-09-11T13:49:36.171Z,26.70
2022-09-11T13:52:06.172Z,26.63
2022-09-11T13:54:41.227Z,26.77
2022-09-11T13:57:28.084Z,26.47
2022-09-11T13:59:57.586Z,26.28
2022-09-11T14:02:34.689Z,26.38
2022-09-11T14:05:15.948Z,26.56
2022-09-11T14:08:00.714Z,26.52
2022-09-11T14:10:43.376Z,26.50
2022-09-11T14:13:46.737Z,26.57
2022-09-11T14:16:14.043Z,26.64
2022-09-11T14:18:52.884Z,26.56
2022-09-11T14:21:24.123Z,26.87
2022-09-11T14:23:55.946Z,26.45
2022-09-11T14:26:24.945Z,26.37
2022-09-11T14:29:06.909Z,26.81
2022-09-11T14:31:43.072Z,26.99
2022-09-11T14:34:16.251Z,26.95
2022-09-11T14:36:45.259Z,27.29
2022-09-11T14:39:24.293Z,26.80
2022-09-11T14:41:53.091Z,26.96
2022-09-11T14:44:22.118Z,27.14
2022-09-11T14:46:49.491Z,27.12
2022-09-11T14:49:16.870Z,27.03
2022-09-11T14:51:53.147Z,27.10
2022-09-11T14:54:22.819Z,27.11
2022-09-11T14:56:50.467Z,26.97
2022-09-11T14:59:17.886Z,27.05
2022-09-11T15:01:46.744Z,27.17
2022-09-11T15:04:19.676Z,27.17
2022-09-11T15:06:53.046Z,27.23
2022-09-11T15:09:20.289Z,26.94
2022-09-11T15:11:47.614Z,27.14
2022-09-11T15:14:32.263Z,27.18
2022-09-11T15:17:06.044Z,27.34
2022-09-11T15:19:35.134Z,27.05
2022-09-11T15:22:03.233Z,26.57
2022-09-11T15:24:30.675Z,26.42
2022-09-11T15:26:58.862Z,26.74
2022-09-11T15:29:30.730Z,26.41
2022-09-11T15:32:01.233Z,26.37
2022-09-11T15:34:32.432Z,26.54
2022-09-11T15:37:00.275Z,26.66
2022-09-11T15:39:28.045Z,26.60
2022-09-11T15:41:55.799Z,26.36
2022-09-11T15:44:24.815Z,26.10
2022-09-11T15:46:52.960Z,26.12
2022-09-11T15:49:24.019Z,26.14
2022-09-11T15:51:52.167Z,26.33
2022-09-11T15:54:20.434Z,26.10
2022-09-11T15:56:47.574Z,25.96
2022-09-11T15:59:17.733Z,25.77
2022-09-11T16:01:45.107Z,25.81
2022-09-11T16:04:15.496Z,25.76
2022-09-11T16:06:45.707Z,25.75
2022-09-11T16:09:16.370Z,25.60
2022-09-11T16:11:43.936Z,25.81
2022-09-11T16:14:18.197Z,25.86
2022-09-11T16:16:49.623Z,25.66
2022-09-11T16:19:19.355Z,25.55
2022-09-11T16:21:46.858Z,25.62
2022-09-11T16:24:15.546Z,25.51
2022-09-11T16:26:44.186Z,25.44
2022-09-11T16:29:14.508Z,25.39
2022-09-11T16:31:42.684Z,25.46
2022-09-11T16:34:11.053Z,25.37
2022-09-11T16:36:42.546Z,25.22
2022-09-11T16:39:12.571Z,25.49
2022-09-11T16:41:39.958Z,25.40
2022-09-11T16:44:10.769Z,25.21
2022-09-11T16:46:38.395Z,25.04
2022-09-11T16:49:06.238Z,24.85
2022-09-11T16:51:34.129Z,24.60
2022-09-11T16:54:04.079Z,24.55
2022-09-11T16:56:31.480Z,24.52
2022-09-11T16:58:58.964Z,24.42
2022-09-11T17:01:26.955Z,24.26
2022-09-11T17:03:55.241Z,24.27
2022-09-11T17:06:23.279Z,24.23
2022-09-11T17:08:51.197Z,24.05
2022-09-11T17:11:19.449Z,23.84
2022-09-11T17:13:46.682Z,23.74
2022-09-11T17:16:16.791Z,23.64
2022-09-11T17:18:53.901Z,23.50
2022-09-11T17:21:25.317Z,23.34
2022-09-11T17:23:54.519Z,23.06
2022-09-11T17:26:22.237Z,22.97
2022-09-11T17:28:50.499Z,22.88
2022-09-11T17:31:19.200Z,22.55
2022-09-11T17:33:47.267Z,22.32
2022-09-11T17:36:17.373Z,22.13
2022-09-11T17:38:46.657Z,21.91
2022-09-11T17:41:14.341Z,21.80
2022-09-11T17:43:41.876Z,21.72
2022-09-11T17:46:10.980Z,21.64
2022-09-11T17:48:39.859Z,21.57
2022-09-11T17:51:13.130Z,21.47
2022-09-11T17:53:41.450Z,21.31
2022-09-11T17:56:10.667Z,21.37
2022-09-11T17:58:38.373Z,21.37
2022-09-11T18:01:06.174Z,21.42
2022-09-11T18:03:33.981Z,21.41
2022-09-11T18:06:03.899Z,21.49
2022-09-11T18:08:33.205Z,21.45
2022-09-11T18:11:02.021Z,21.42
2022-09-11T18:13:31.663Z,21.53
2022-09-11T18:15:59.114Z,21.48
2022-09-11T18:18:26.465Z,21.48
2022-09-11T18:20:55.373Z,21.45
2022-09-11T18:23:23.435Z,21.13
2022-09-11T18:25:51.493Z,21.08
2022-09-11T18:28:20.075Z,20.99
2022-09-11T18:30:47.495Z,20.95
2022-09-11T18:33:16.659Z,20.81
2022-09-11T18:35:44.297Z,20.82
2022-09-11T18:38:11.436Z,20.76
2022-09-11T18:40:39.069Z,20.66
2022-09-11T18:43:08.976Z,20.77
2022-09-11T18:45:36.695Z,20.75
2022-09-11T18:48:04.468Z,20.65
2022-09-11T18:50:32.717Z,20.66
2022-09-11T18:53:00.214Z,20.69
2022-09-11T18:55:28.887Z,20.56
2022-09-11T18:57:57.530Z,20.59
2022-09-11T19:00:25.209Z,20.40
2022-09-11T19:02:54.537Z,20.50
2022-09-11T19:05:21.796Z,20.48
2022-09-11T19:07:48.891Z,20.47
2022-09-11T19:10:16.155Z,20.55
2022-09-11T19:12:43.219Z,20.47
2022-09-11T19:15:11.029Z,20.39
2022-09-11T19:17:38.518Z,20.15
2022-09-11T19:20:08.851Z,20.11
2022-09-11T19:22:36.275Z,20.00
2022-09-11T19:25:03.967Z,20.08
2022-09-11T19:27:31.843Z,20.12
2022-09-11T19:30:00.457Z,20.19
2022-09-11T19:32:28.147Z,20.13
2022-09-11T19:34:57.569Z,20.09
2022-09-11T19:37:24.811Z,20.07
2022-09-11T19:39:52.805Z,20.06
2022-09-11T19:42:21.332Z,20.04
2022-09-11T19:44:50.353Z,19.96
2022-09-11T19:47:21.469Z,19.88
2022-09-11T19:49:48.723Z,19.91
2022-09-11T19:52:15.974Z,19.86
2022-09-11T19:54:43.334Z,19.77
2022-09-11T19:57:10.865Z,19.73
2022-09-11T19:59:38.208Z,19.70
2022-09-11T20:02:05.738Z,19.68
2022-09-11T20:04:33.033Z,19.66
2022-09-11T20:07:01.390Z,19.64
2022-09-11T20:09:32.498Z,19.61
2022-09-11T20:12:01.320Z,19.54
2022-09-11T20:14:31.180Z,19.66
2022-09-11T20:17:00.607Z,19.63
2022-09-11T20:19:28.100Z,19.60
2022-09-11T20:21:55.332Z,19.67
2022-09-11T20:24:22.810Z,19.56
2022-09-11T20:26:52.177Z,19.45
2022-09-11T20:29:19.907Z,19.52
2022-09-11T20:31:51.392Z,19.44
2022-09-11T20:34:19.605Z,19.48
2022-09-11T20:36:47.139Z,19.48
2022-09-11T20:39:15.208Z,19.25
2022-09-11T20:41:42.922Z,19.08
2022-09-11T20:44:11.612Z,19.22
2022-09-11T20:46:38.941Z,19.21
2022-09-11T20:49:06.204Z,19.15
2022-09-11T20:51:34.356Z,19.12
2022-09-11T20:54:01.929Z,19.15
2022-09-11T20:56:34.115Z,19.16
2022-09-11T20:59:01.645Z,19.08
2022-09-11T21:01:34.591Z,18.99
2022-09-11T21:04:04.537Z,19.00
2022-09-11T21:06:34.112Z,18.81
2022-09-11T21:09:08.679Z,18.68
2022-09-11T21:11:36.844Z,18.67
2022-09-11T21:14:05.458Z,18.67
2022-09-11T21:16:33.545Z,18.60
2022-09-11T21:19:01.987Z,18.58
2022-09-11T21:21:30.035Z,18.67
2022-09-11T21:23:59.483Z,18.66
2022-09-11T21:26:28.927Z,18.67
2022-09-11T21:29:01.268Z,18.72
2022-09-11T21:31:29.138Z,18.65
2022-09-11T21:33:57.373Z,18.54
2022-09-11T21:36:26.360Z,18.64
2022-09-11T21:38:53.939Z,18.63
2022-09-11T21:41:21.424Z,18.70
2022-09-11T21:43:49.368Z,18.66
2022-09-11T21:46:17.214Z,18.59
2022-09-11T21:48:44.719Z,18.50
2022-09-11T21:51:14.711Z,18.47
2022-09-11T21:53:44.284Z,18.52
2022-09-11T21:56:26.621Z,18.47
2022-09-11T21:58:54.021Z,18.44
2022-09-11T22:01:23.210Z,18.25
2022-09-11T22:03:51.564Z,18.16
2022-09-11T22:06:20.478Z,18.23
2022-09-11T22:08:47.748Z,18.23
2022-09-11T22:11:16.038Z,18.16
2022-09-11T22:13:43.735Z,18.20
2022-09-11T22:16:14.652Z,18.13
2022-09-11T22:18:43.440Z,18.09
2022-09-11T22:21:10.945Z,18.02
2022-09-11T22:23:38.231Z,17.96
2022-09-11T22:26:09.563Z,18.07
2022-09-11T22:28:37.820Z,18.17
2022-09-11T22:31:16.171Z,18.16
2022-09-11T22:33:43.788Z,18.27
2022-09-11T22:36:14.643Z,18.18
2022-09-11T22:38:42.908Z,18.18
2022-09-11T22:41:10.318Z,18.00
2022-09-11T22:43:38.408Z,18.08
2022-09-11T22:46:06.347Z,18.21
2022-09-11T22:48:34.147Z,18.27
2022-09-11T22:51:01.866Z,18.32
2022-09-11T22:53:30.358Z,18.32
2022-09-11T22:55:58.214Z,18.29
2022-09-11T22:58:26.020Z,18.23
2022-09-11T23:00:55.338Z,18.35
2022-09-11T23:03:22.923Z,18.38
2022-09-11T23:06:14.442Z,18.17
2022-09-11T23:08:41.929Z,18.31
2022-09-11T23:11:11.138Z,18.39
2022-09-11T23:13:38.714Z,18.34
2022-09-11T23:16:15.266Z,18.46
2022-09-11T23:18:43.201Z,18.51
2022-09-11T23:21:11.083Z,18.37
2022-09-11T23:23:42.355Z,18.35
2022-09-11T23:26:13.809Z,18.28
2022-09-11T23:28:41.334Z,18.16
2022-09-11T23:31:35.015Z,18.01
2022-09-11T23:34:08.605Z,18.03
2022-09-11T23:36:36.391Z,18.06
2022-09-11T23:39:03.774Z,17.98
2022-09-11T23:41:32.017Z,17.98
2022-09-11T23:43:59.764Z,18.10
2022-09-11T23:46:27.240Z,18.16
2022-09-11T23:48:54.426Z,18.18
2022-09-11T23:51:22.314Z,18.22
2022-09-11T23:53:51.610Z,18.13
2022-09-11T23:56:20.724Z,18.17
2022-09-11T23:58:48.785Z,18.23
